createdAt,value
2018-11-27T00:00:48.693Z,805.81
2018-11-27T00:01:48.700Z,805.82
2018-11-27T00:02:48.705Z,805.80
2018-11-27T00:03:48.710Z,805.81
2018-11-27T00:04:48.714Z,805.82
2018-11-27T00:05:48.719Z,805.84
2018-11-27T00:06:48.726Z,805.82
2018-11-27T00:07:48.732Z,805.83
2018-11-27T00:08:48.736Z,805.83
2018-11-27T00:09:48.741Z,805.83
2018-11-27T00:10:48.746Z,805.83
2018-11-27T00:11:48.752Z,805.87
2018-11-27T00:12:48.756Z,805.90
2018-11-27T00:13:48.762Z,805.87
2018-11-27T00:14:48.770Z,805.89
2018-11-27T00:15:48.772Z,805.95
2018-11-27T00:16:48.777Z,805.94
2018-11-27T00:17:48.783Z,805.98
2018-11-27T00:18:48.791Z,805.98
2018-11-27T00:19:48.794Z,805.97
2018-11-27T00:20:48.799Z,805.95
2018-11-27T00:21:48.805Z,805.99
2018-11-27T00:22:48.815Z,805.98
2018-11-27T00:23:48.814Z,806.00
2018-11-27T00:24:48.819Z,806.00
2018-11-27T00:25:48.830Z,806.00
2018-11-27T00:26:48.832Z,806.05
2018-11-27T00:27:48.840Z,806.06
2018-11-27T00:28:48.840Z,806.05
2018-11-27T00:29:48.845Z,806.03
2018-11-27T00:30:48.851Z,806.04
2018-11-27T00:31:48.857Z,806.03
2018-11-27T00:32:48.864Z,806.07
2018-11-27T00:33:48.868Z,806.09
2018-11-27T00:34:48.873Z,806.09
2018-11-27T00:35:48.880Z,806.06
2018-11-27T00:36:48.883Z,806.06
2018-11-27T00:37:48.890Z,806.06
2018-11-27T00:38:48.897Z,806.07
2018-11-27T00:39:48.898Z,806.15
2018-11-27T00:40:48.908Z,806.14
2018-11-27T00:41:48.911Z,806.11
2018-11-27T00:42:48.918Z,806.12
2018-11-27T00:43:48.925Z,806.15
2018-11-27T00:44:48.924Z,806.14
2018-11-27T00:45:48.931Z,806.14
2018-11-27T00:46:48.940Z,806.13
2018-11-27T00:47:48.947Z,806.16
2018-11-27T00:48:48.952Z,806.19
2018-11-27T00:49:48.953Z,806.19
2018-11-27T00:50:48.958Z,806.16
2018-11-27T00:51:48.962Z,806.24
2018-11-27T00:52:48.968Z,806.27
2018-11-27T00:53:48.972Z,806.23
2018-11-27T00:54:48.978Z,806.26
2018-11-27T00:55:48.982Z,806.23
2018-11-27T00:56:48.987Z,806.29
2018-11-27T00:57:48.991Z,806.32
2018-11-27T00:58:48.997Z,806.36
2018-11-27T00:59:49.007Z,806.36
2018-11-27T01:00:49.006Z,806.31
2018-11-27T01:01:49.013Z,806.35
2018-11-27T01:02:49.018Z,806.36
2018-11-27T01:03:49.023Z,806.43
2018-11-27T01:04:49.027Z,806.37
2018-11-27T01:05:49.030Z,806.42
2018-11-27T01:06:49.039Z,806.42
2018-11-27T01:07:49.044Z,806.44
2018-11-27T01:08:49.050Z,806.44
2018-11-27T01:09:49.052Z,806.44
2018-11-27T01:10:49.059Z,806.48
2018-11-27T01:11:49.062Z,806.47
2018-11-27T01:12:49.069Z,806.47
2018-11-27T01:13:49.075Z,806.51
2018-11-27T01:14:49.080Z,806.51
2018-11-27T01:15:49.083Z,806.49
2018-11-27T01:16:49.088Z,806.49
2018-11-27T01:17:49.098Z,806.56
2018-11-27T01:18:49.100Z,806.57
2018-11-27T01:19:49.103Z,806.53
2018-11-27T01:20:49.111Z,806.53
2018-11-27T01:21:49.114Z,806.54
2018-11-27T01:22:49.120Z,806.52
2018-11-27T01:23:49.123Z,806.53
2018-11-27T01:24:49.127Z,806.55
2018-11-27T01:25:49.135Z,806.55
2018-11-27T01:26:49.139Z,806.61
2018-11-27T01:27:49.143Z,806.61
2018-11-27T01:28:49.147Z,806.61
2018-11-27T01:29:49.154Z,806.63
2018-11-27T01:30:49.160Z,806.66
2018-11-27T01:31:49.163Z,806.65
2018-11-27T01:32:49.167Z,806.64
2018-11-27T01:33:49.172Z,806.60
2018-11-27T01:34:49.178Z,806.67
2018-11-27T01:35:49.181Z,806.66
2018-11-27T01:36:49.186Z,806.68
2018-11-27T01:37:49.191Z,806.66
2018-11-27T01:38:49.197Z,806.64
2018-11-27T01:39:49.203Z,806.68
2018-11-27T01:40:49.207Z,806.66
2018-11-27T01:41:49.213Z,806.67
2018-11-27T01:42:49.216Z,806.69
2018-11-27T01:43:49.223Z,806.70
2018-11-27T01:44:49.224Z,806.69
2018-11-27T01:45:49.230Z,806.74
2018-11-27T01:46:49.234Z,806.77
2018-11-27T01:47:49.239Z,806.76
2018-11-27T01:48:49.244Z,806.77
2018-11-27T01:49:49.249Z,806.79
2018-11-27T01:50:49.253Z,806.74
2018-11-27T01:51:49.261Z,806.74
2018-11-27T01:52:49.265Z,806.75
2018-11-27T01:53:49.269Z,806.69
2018-11-27T01:54:49.274Z,806.71
2018-11-27T01:55:49.278Z,806.73
2018-11-27T01:56:49.283Z,806.70
2018-11-27T01:57:49.289Z,806.73
2018-11-27T01:58:49.292Z,806.67
2018-11-27T01:59:49.299Z,806.71
2018-11-27T02:00:49.302Z,806.74
2018-11-27T02:01:49.308Z,806.65
2018-11-27T02:02:49.312Z,806.67
2018-11-27T02:03:49.317Z,806.65
2018-11-27T02:04:49.323Z,806.70
2018-11-27T02:05:49.326Z,806.71
2018-11-27T02:06:49.333Z,806.69
2018-11-27T02:07:49.340Z,806.70
2018-11-27T02:08:49.342Z,806.70
2018-11-27T02:09:49.347Z,806.72
2018-11-27T02:10:49.352Z,806.75
2018-11-27T02:11:49.357Z,806.79
2018-11-27T02:12:49.363Z,806.77
2018-11-27T02:13:49.367Z,806.81
2018-11-27T02:14:49.373Z,806.79
2018-11-27T02:15:49.377Z,806.78
2018-11-27T02:16:49.381Z,806.76
2018-11-27T02:17:49.387Z,806.80
2018-11-27T02:18:49.391Z,806.84
2018-11-27T02:19:49.398Z,806.83
2018-11-27T02:20:49.401Z,806.76
2018-11-27T02:21:49.406Z,806.78
2018-11-27T02:22:49.413Z,806.81
2018-11-27T02:23:49.416Z,806.77
2018-11-27T02:24:49.422Z,806.79
2018-11-27T02:25:49.426Z,806.88
2018-11-27T02:26:49.434Z,806.86
2018-11-27T02:27:49.438Z,806.86
2018-11-27T02:28:49.440Z,806.85
2018-11-27T02:29:49.445Z,806.88
2018-11-27T02:30:49.453Z,806.81
2018-11-27T02:31:49.455Z,806.84
2018-11-27T02:32:49.461Z,806.80
2018-11-27T02:33:49.464Z,806.87
2018-11-27T02:34:49.473Z,806.83
2018-11-27T02:35:49.485Z,806.77
2018-11-27T02:36:49.478Z,806.79
2018-11-27T02:37:49.484Z,806.83
2018-11-27T02:38:49.487Z,806.80
2018-11-27T02:39:49.537Z,806.81
2018-11-27T02:40:49.498Z,806.82
2018-11-27T02:41:49.503Z,806.84
2018-11-27T02:42:49.532Z,806.90
2018-11-27T02:43:49.514Z,806.88
2018-11-27T02:44:49.516Z,806.87
2018-11-27T02:45:49.522Z,806.85
2018-11-27T02:46:49.528Z,806.83
2018-11-27T02:47:49.538Z,806.88
2018-11-27T02:48:49.536Z,806.89
2018-11-27T02:49:49.539Z,806.93
2018-11-27T02:50:49.548Z,806.87
2018-11-27T02:51:49.553Z,806.88
2018-11-27T02:52:49.555Z,806.91
2018-11-27T02:53:49.561Z,806.91
2018-11-27T02:54:49.565Z,806.93
2018-11-27T02:55:49.571Z,806.92
2018-11-27T02:56:49.574Z,806.92
2018-11-27T02:57:49.579Z,806.97
2018-11-27T02:58:49.584Z,806.93
2018-11-27T02:59:49.593Z,806.97
2018-11-27T03:00:49.655Z,806.95
2018-11-27T03:01:49.600Z,806.93
2018-11-27T03:02:49.612Z,806.94
2018-11-27T03:03:49.614Z,807.02
2018-11-27T03:04:49.617Z,806.94
2018-11-27T03:05:49.620Z,806.92
2018-11-27T03:06:49.625Z,806.93
2018-11-27T03:07:49.631Z,806.95
2018-11-27T03:08:49.653Z,806.93
2018-11-27T03:09:49.642Z,806.93
2018-11-27T03:10:49.646Z,806.91
2018-11-27T03:11:49.651Z,806.90
2018-11-27T03:12:49.711Z,806.98
2018-11-27T03:13:49.661Z,806.98
2018-11-27T03:14:49.665Z,806.93
2018-11-27T03:15:49.673Z,806.97
2018-11-27T03:16:49.674Z,806.95
2018-11-27T03:17:49.691Z,806.90
2018-11-27T03:18:49.686Z,806.93
2018-11-27T03:19:49.687Z,806.98
2018-11-27T03:20:49.693Z,806.92
2018-11-27T03:21:49.697Z,806.98
2018-11-27T03:22:49.704Z,807.02
2018-11-27T03:23:49.708Z,806.98
2018-11-27T03:24:49.713Z,806.97
2018-11-27T03:25:49.717Z,806.96
2018-11-27T03:26:49.722Z,806.99
2018-11-27T03:27:49.727Z,806.98
2018-11-27T03:28:49.732Z,807.03
2018-11-27T03:29:49.741Z,806.99
2018-11-27T03:30:49.767Z,806.99
2018-11-27T03:31:49.748Z,807.00
2018-11-27T03:32:49.771Z,807.05
2018-11-27T03:33:49.760Z,807.07
2018-11-27T03:34:49.761Z,807.10
2018-11-27T03:35:49.771Z,807.08
2018-11-27T03:36:49.770Z,807.09
2018-11-27T03:37:49.781Z,807.06
2018-11-27T03:38:49.781Z,807.10
2018-11-27T03:39:49.786Z,807.06
2018-11-27T03:40:49.793Z,807.11
2018-11-27T03:41:49.794Z,807.07
2018-11-27T03:42:49.802Z,807.09
2018-11-27T03:43:49.804Z,807.10
2018-11-27T03:44:49.809Z,807.08
2018-11-27T03:45:49.817Z,807.10
2018-11-27T03:46:49.820Z,807.08
2018-11-27T03:47:49.828Z,807.07
2018-11-27T03:48:49.830Z,807.10
2018-11-27T03:49:49.836Z,807.09
2018-11-27T03:50:49.842Z,807.10
2018-11-27T03:51:49.845Z,807.06
2018-11-27T03:52:49.846Z,807.08
2018-11-27T03:53:49.851Z,807.12
2018-11-27T03:54:49.859Z,807.15
2018-11-27T03:55:49.863Z,807.09
2018-11-27T03:56:49.868Z,807.09
2018-11-27T03:57:49.871Z,807.11
2018-11-27T03:58:49.879Z,807.10
2018-11-27T03:59:49.881Z,807.13
2018-11-27T04:00:49.886Z,807.15
2018-11-27T04:01:49.895Z,807.12
2018-11-27T04:02:49.902Z,807.09
2018-11-27T04:03:49.903Z,807.18
2018-11-27T04:04:49.913Z,807.15
2018-11-27T04:05:49.917Z,807.14
2018-11-27T04:06:49.922Z,807.14
2018-11-27T04:07:49.925Z,807.15
2018-11-27T04:08:49.928Z,807.16
2018-11-27T04:09:49.930Z,807.22
2018-11-27T04:10:49.940Z,807.14
2018-11-27T04:11:49.941Z,807.15
2018-11-27T04:12:49.947Z,807.13
2018-11-27T04:13:49.955Z,807.14
2018-11-27T04:14:49.956Z,807.13
2018-11-27T04:15:49.963Z,807.15
2018-11-27T04:16:49.970Z,807.14
2018-11-27T04:17:49.974Z,807.20
2018-11-27T04:18:49.979Z,807.20
2018-11-27T04:19:49.985Z,807.16
2018-11-27T04:20:49.987Z,807.15
2018-11-27T04:21:49.989Z,807.14
2018-11-27T04:22:49.992Z,807.17
2018-11-27T04:23:50.000Z,807.22
2018-11-27T04:24:50.007Z,807.22
2018-11-27T04:25:50.009Z,807.20
2018-11-27T04:26:50.021Z,807.20
2018-11-27T04:27:50.021Z,807.25
2018-11-27T04:28:50.025Z,807.22
2018-11-27T04:29:50.031Z,807.25
2018-11-27T04:30:51.189Z,807.22
2018-11-27T04:31:50.037Z,807.24
2018-11-27T04:32:50.043Z,807.24
2018-11-27T04:33:50.050Z,807.29
2018-11-27T04:34:50.054Z,807.24
2018-11-27T04:35:50.058Z,807.24
2018-11-27T04:36:50.063Z,807.25
2018-11-27T04:37:50.067Z,807.28
2018-11-27T04:38:50.074Z,807.31
2018-11-27T04:39:50.078Z,807.27
2018-11-27T04:40:50.084Z,807.26
2018-11-27T04:41:50.087Z,807.28
2018-11-27T04:42:50.092Z,807.26
2018-11-27T04:43:50.096Z,807.26
2018-11-27T04:44:50.102Z,807.27
2018-11-27T04:45:50.108Z,807.28
2018-11-27T04:46:50.113Z,807.26
2018-11-27T04:47:50.117Z,807.25
2018-11-27T04:48:50.119Z,807.27
2018-11-27T04:49:50.125Z,807.24
2018-11-27T04:50:50.131Z,807.26
2018-11-27T04:51:50.146Z,807.30
2018-11-27T04:52:50.142Z,807.30
2018-11-27T04:53:50.149Z,807.28
2018-11-27T04:54:50.152Z,807.31
2018-11-27T04:55:50.158Z,807.30
2018-11-27T04:56:50.162Z,807.30
2018-11-27T04:57:50.176Z,807.30
2018-11-27T04:58:50.172Z,807.29
2018-11-27T04:59:50.176Z,807.29
2018-11-27T05:00:50.182Z,807.25
2018-11-27T05:01:50.186Z,807.26
2018-11-27T05:02:50.193Z,807.26
2018-11-27T05:03:50.203Z,807.30
2018-11-27T05:04:50.203Z,807.35
2018-11-27T05:05:50.207Z,807.33
2018-11-27T05:06:50.210Z,807.27
2018-11-27T05:07:50.219Z,807.35
2018-11-27T05:08:50.222Z,807.38
2018-11-27T05:09:50.226Z,807.42
2018-11-27T05:10:50.230Z,807.40
2018-11-27T05:11:50.235Z,807.43
2018-11-27T05:12:50.239Z,807.43
2018-11-27T05:13:50.246Z,807.44
2018-11-27T05:14:50.251Z,807.37
2018-11-27T05:15:50.256Z,807.43
2018-11-27T05:16:50.261Z,807.46
2018-11-27T05:17:50.281Z,807.40
2018-11-27T05:18:50.270Z,807.42
2018-11-27T05:19:50.277Z,807.43
2018-11-27T05:20:50.281Z,807.46
2018-11-27T05:21:50.287Z,807.44
2018-11-27T05:22:50.292Z,807.50
2018-11-27T05:23:50.297Z,807.47
2018-11-27T05:24:50.301Z,807.48
2018-11-27T05:25:50.305Z,807.48
2018-11-27T05:26:50.315Z,807.49
2018-11-27T05:27:50.316Z,807.48
2018-11-27T05:28:50.321Z,807.49
2018-11-27T05:29:50.326Z,807.51
2018-11-27T05:30:50.332Z,807.50
2018-11-27T05:31:50.336Z,807.51
2018-11-27T05:32:50.342Z,807.51
2018-11-27T05:33:50.345Z,807.53
2018-11-27T05:34:50.351Z,807.54
2018-11-27T05:35:50.356Z,807.55
2018-11-27T05:36:50.362Z,807.61
2018-11-27T05:37:50.366Z,807.61
2018-11-27T05:38:50.375Z,807.62
2018-11-27T05:39:50.378Z,807.63
2018-11-27T05:40:50.382Z,807.64
2018-11-27T05:41:50.387Z,807.65
2018-11-27T05:42:50.393Z,807.68
2018-11-27T05:43:50.395Z,807.62
2018-11-27T05:44:50.400Z,807.62
2018-11-27T05:45:50.409Z,807.68
2018-11-27T05:46:50.412Z,807.66
2018-11-27T05:47:50.416Z,807.64
2018-11-27T05:48:50.421Z,807.72
2018-11-27T05:49:50.426Z,807.75
2018-11-27T05:50:50.432Z,807.72
2018-11-27T05:51:50.438Z,807.78
2018-11-27T05:52:50.440Z,807.77
2018-11-27T05:53:50.448Z,807.77
2018-11-27T05:54:50.452Z,807.81
2018-11-27T05:55:50.458Z,807.79
2018-11-27T05:56:50.463Z,807.80
2018-11-27T05:57:50.469Z,807.85
2018-11-27T05:58:50.472Z,807.85
2018-11-27T05:59:50.480Z,807.90
2018-11-27T06:00:50.483Z,807.88
2018-11-27T06:01:50.489Z,807.91
2018-11-27T06:02:50.494Z,807.92
2018-11-27T06:03:50.501Z,807.94
2018-11-27T06:04:50.500Z,807.96
2018-11-27T06:05:50.507Z,807.95
2018-11-27T06:06:50.513Z,807.92
2018-11-27T06:07:50.521Z,808.00
2018-11-27T06:08:50.520Z,807.96
2018-11-27T06:09:50.527Z,807.98
2018-11-27T06:10:50.535Z,808.03
2018-11-27T06:11:50.538Z,808.04
2018-11-27T06:12:50.544Z,808.05
2018-11-27T06:13:50.548Z,808.06
2018-11-27T06:14:50.552Z,808.08
2018-11-27T06:15:50.561Z,807.99
2018-11-27T06:16:50.562Z,808.04
2018-11-27T06:17:50.576Z,808.05
2018-11-27T06:18:50.578Z,808.08
2018-11-27T06:19:50.578Z,808.09
2018-11-27T06:20:50.583Z,808.05
2018-11-27T06:21:50.588Z,808.08
2018-11-27T06:22:50.600Z,808.13
2018-11-27T06:23:50.597Z,808.16
2018-11-27T06:24:50.602Z,808.16
2018-11-27T06:25:50.609Z,808.16
2018-11-27T06:26:50.615Z,808.18
2018-11-27T06:27:50.618Z,808.18
2018-11-27T06:28:50.624Z,808.17
2018-11-27T06:29:50.633Z,808.19
2018-11-27T06:30:50.634Z,808.18
2018-11-27T06:31:50.640Z,808.21
2018-11-27T06:32:50.643Z,808.25
2018-11-27T06:33:50.647Z,808.25
2018-11-27T06:34:50.657Z,808.24
2018-11-27T06:35:50.658Z,808.23
2018-11-27T06:36:50.664Z,808.23
2018-11-27T06:37:50.667Z,808.28
2018-11-27T06:38:50.673Z,808.26
2018-11-27T06:39:50.678Z,808.30
2018-11-27T06:40:50.682Z,808.34
2018-11-27T06:41:50.740Z,808.33
2018-11-27T06:42:50.693Z,808.37
2018-11-27T06:43:50.699Z,808.39
2018-11-27T06:44:50.702Z,808.43
2018-11-27T06:45:50.707Z,808.41
2018-11-27T06:46:50.711Z,808.39
2018-11-27T06:47:50.719Z,808.43
2018-11-27T06:48:50.722Z,808.44
2018-11-27T06:49:50.725Z,808.45
2018-11-27T06:50:50.731Z,808.46
2018-11-27T06:51:50.736Z,808.48
2018-11-27T06:52:50.740Z,808.46
2018-11-27T06:53:50.743Z,808.47
2018-11-27T06:54:50.756Z,808.48
2018-11-27T06:55:50.768Z,808.53
2018-11-27T06:56:50.760Z,808.52
2018-11-27T06:57:50.766Z,808.52
2018-11-27T06:58:50.772Z,808.58
2018-11-27T06:59:50.774Z,808.54
2018-11-27T07:00:50.781Z,808.55
2018-11-27T07:01:50.787Z,808.63
2018-11-27T07:02:50.791Z,808.58
2018-11-27T07:03:50.795Z,808.58
2018-11-27T07:04:50.801Z,808.60
2018-11-27T07:05:50.804Z,808.58
2018-11-27T07:06:50.809Z,808.65
2018-11-27T07:07:50.814Z,808.60
2018-11-27T07:08:50.818Z,808.66
2018-11-27T07:09:50.828Z,808.66
2018-11-27T07:10:50.831Z,808.65
2018-11-27T07:11:50.835Z,808.71
2018-11-27T07:12:50.845Z,808.72
2018-11-27T07:13:50.844Z,808.72
2018-11-27T07:14:50.849Z,808.72
2018-11-27T07:15:50.862Z,808.74
2018-11-27T07:16:50.857Z,808.80
2018-11-27T07:17:50.861Z,808.82
2018-11-27T07:18:50.870Z,808.79
2018-11-27T07:19:50.873Z,808.80
2018-11-27T07:20:50.876Z,808.81
2018-11-27T07:21:50.883Z,808.87
2018-11-27T07:22:50.886Z,808.86
2018-11-27T07:23:50.896Z,808.87
2018-11-27T07:24:50.901Z,808.88
2018-11-27T07:25:50.901Z,808.93
2018-11-27T07:26:52.941Z,808.90
2018-11-27T07:27:50.915Z,808.94
2018-11-27T07:28:50.917Z,808.94
2018-11-27T07:29:50.921Z,808.95
2018-11-27T07:30:50.926Z,809.00
2018-11-27T07:31:50.931Z,808.99
2018-11-27T07:32:50.941Z,809.02
2018-11-27T07:33:50.949Z,809.03
2018-11-27T07:34:50.947Z,809.05
2018-11-27T07:35:50.952Z,809.09
2018-11-27T07:36:50.956Z,809.06
2018-11-27T07:37:50.962Z,809.06
2018-11-27T07:38:50.969Z,809.14
2018-11-27T07:39:50.970Z,809.13
2018-11-27T07:40:50.977Z,809.12
2018-11-27T07:41:50.977Z,809.15
2018-11-27T07:42:50.987Z,809.16
2018-11-27T07:43:50.993Z,809.16
2018-11-27T07:44:50.996Z,809.16
2018-11-27T07:45:55.193Z,809.16
2018-11-27T07:46:51.007Z,809.11
2018-11-27T07:47:51.014Z,809.17
2018-11-27T07:48:51.013Z,809.16
2018-11-27T07:49:51.020Z,809.18
2018-11-27T07:50:51.022Z,809.19
2018-11-27T07:51:51.050Z,809.15
2018-11-27T07:52:51.034Z,809.21
2018-11-27T07:53:51.038Z,809.20
2018-11-27T07:54:51.045Z,809.14
2018-11-27T07:55:51.049Z,809.24
2018-11-27T07:56:51.054Z,809.19
2018-11-27T07:57:51.070Z,809.17
2018-11-27T07:58:51.064Z,809.18
2018-11-27T07:59:51.071Z,809.17
2018-11-27T08:00:51.074Z,809.21
2018-11-27T08:01:51.085Z,809.13
2018-11-27T08:02:51.086Z,809.16
2018-11-27T08:03:51.091Z,809.18
2018-11-27T08:04:51.095Z,809.21
2018-11-27T08:05:51.100Z,809.19
2018-11-27T08:06:51.105Z,809.15
2018-11-27T08:07:51.110Z,809.19
2018-11-27T08:08:51.116Z,809.18
2018-11-27T08:09:51.123Z,809.18
2018-11-27T08:10:51.130Z,809.25
2018-11-27T08:11:51.178Z,809.21
2018-11-27T08:12:51.135Z,809.19
2018-11-27T08:13:51.140Z,809.19
2018-11-27T08:14:51.150Z,809.21
2018-11-27T08:15:51.151Z,809.20
2018-11-27T08:16:51.156Z,809.25
2018-11-27T08:17:51.164Z,809.26
2018-11-27T08:18:51.168Z,809.29
2018-11-27T08:19:51.172Z,809.33
2018-11-27T08:20:51.176Z,809.33
2018-11-27T08:21:51.183Z,809.39
2018-11-27T08:22:51.187Z,809.33
2018-11-27T08:23:51.194Z,809.36
2018-11-27T08:24:51.197Z,809.36
2018-11-27T08:25:51.203Z,809.38
2018-11-27T08:26:51.207Z,809.42
2018-11-27T08:27:51.217Z,809.44
2018-11-27T08:28:51.218Z,809.46
2018-11-27T08:29:51.227Z,809.51
2018-11-27T08:30:51.230Z,809.52
2018-11-27T08:31:51.235Z,809.55
2018-11-27T08:32:51.239Z,809.59
2018-11-27T08:33:51.244Z,809.56
2018-11-27T08:34:51.249Z,809.59
2018-11-27T08:35:51.256Z,809.58
2018-11-27T08:36:51.263Z,809.54
2018-11-27T08:37:51.264Z,809.57
2018-11-27T08:38:51.270Z,809.57
2018-11-27T08:39:51.277Z,809.61
2018-11-27T08:40:51.280Z,809.61
2018-11-27T08:41:51.289Z,809.61
2018-11-27T08:42:51.294Z,809.63
2018-11-27T08:43:51.298Z,809.66
2018-11-27T08:44:51.305Z,809.69
2018-11-27T08:45:51.307Z,809.69
2018-11-27T08:46:51.312Z,809.72
2018-11-27T08:47:51.360Z,809.73
2018-11-27T08:48:51.324Z,809.78
2018-11-27T08:49:51.332Z,809.75
2018-11-27T08:50:51.333Z,809.78
2018-11-27T08:51:51.338Z,809.81
2018-11-27T08:52:51.343Z,809.80
2018-11-27T08:53:51.348Z,809.86
2018-11-27T08:54:51.354Z,809.82
2018-11-27T08:55:51.362Z,809.89
2018-11-27T08:56:51.364Z,809.90
2018-11-27T08:57:51.370Z,809.89
2018-11-27T08:58:51.375Z,809.89
2018-11-27T08:59:51.379Z,809.88
2018-11-27T09:00:51.382Z,809.93
2018-11-27T09:01:51.390Z,809.87
2018-11-27T09:02:51.401Z,809.90
2018-11-27T09:03:51.429Z,809.93
2018-11-27T09:04:51.406Z,809.94
2018-11-27T09:05:51.415Z,809.92
2018-11-27T09:06:51.417Z,809.94
2018-11-27T09:07:51.423Z,809.95
2018-11-27T09:08:51.429Z,810.00
2018-11-27T09:09:51.432Z,810.00
2018-11-27T09:10:51.439Z,809.99
2018-11-27T09:11:51.445Z,810.01
2018-11-27T09:12:51.450Z,809.97
2018-11-27T09:13:51.456Z,809.95
2018-11-27T09:14:51.461Z,810.01
2018-11-27T09:15:51.465Z,809.96
2018-11-27T09:16:51.471Z,809.99
2018-11-27T09:17:51.476Z,810.01
2018-11-27T09:18:51.482Z,809.98
2018-11-27T09:19:51.488Z,810.02
2018-11-27T09:20:51.493Z,810.02
2018-11-27T09:21:51.542Z,810.02
2018-11-27T09:22:51.508Z,810.02
2018-11-27T09:23:51.514Z,810.05
2018-11-27T09:24:51.514Z,810.08
2018-11-27T09:25:51.523Z,810.09
2018-11-27T09:26:51.526Z,810.12
2018-11-27T09:27:51.537Z,810.14
2018-11-27T09:28:51.538Z,810.18
2018-11-27T09:29:51.543Z,810.20
2018-11-27T09:30:51.553Z,810.15
2018-11-27T09:31:51.563Z,810.15
2018-11-27T09:32:51.559Z,810.15
2018-11-27T09:33:51.566Z,810.14
2018-11-27T09:34:51.573Z,810.18
2018-11-27T09:35:51.577Z,810.13
2018-11-27T09:36:51.591Z,810.17
2018-11-27T09:37:51.588Z,810.14
2018-11-27T09:38:51.594Z,810.16
2018-11-27T09:39:51.601Z,810.20
2018-11-27T09:40:51.605Z,810.22
2018-11-27T09:41:51.611Z,810.23
2018-11-27T09:42:51.617Z,810.22
2018-11-27T09:43:51.623Z,810.24
2018-11-27T09:44:51.628Z,810.24
2018-11-27T09:45:51.636Z,810.24
2018-11-27T09:46:51.644Z,810.23
2018-11-27T09:47:51.644Z,810.24
2018-11-27T09:48:51.654Z,810.22
2018-11-27T09:49:51.657Z,810.25
2018-11-27T09:50:51.663Z,810.25
2018-11-27T09:51:51.668Z,810.28
2018-11-27T09:52:51.674Z,810.24
2018-11-27T09:53:51.682Z,810.25
2018-11-27T09:54:51.687Z,810.23
2018-11-27T09:55:51.694Z,810.26
2018-11-27T09:56:51.698Z,810.25
2018-11-27T09:57:51.710Z,810.25
2018-11-27T09:58:52.615Z,810.25
2018-11-27T09:59:51.715Z,810.25
2018-11-27T10:00:51.727Z,810.20
2018-11-27T10:01:51.727Z,810.17
2018-11-27T10:02:51.734Z,810.15
2018-11-27T10:03:51.738Z,810.19
2018-11-27T10:04:51.742Z,810.23
2018-11-27T10:05:51.749Z,810.19
2018-11-27T10:06:51.756Z,810.17
2018-11-27T10:07:51.763Z,810.15
2018-11-27T10:08:51.771Z,810.14
2018-11-27T10:09:51.774Z,810.16
2018-11-27T10:10:51.779Z,810.17
2018-11-27T10:11:51.787Z,810.10
2018-11-27T10:12:51.793Z,810.10
2018-11-27T10:13:51.800Z,810.07
2018-11-27T10:14:51.804Z,810.08
2018-11-27T10:15:51.810Z,810.06
2018-11-27T10:16:51.820Z,810.09
2018-11-27T10:17:51.823Z,810.06
2018-11-27T10:18:51.831Z,810.12
2018-11-27T10:19:51.837Z,810.05
2018-11-27T10:20:51.845Z,810.04
2018-11-27T10:21:51.850Z,810.05
2018-11-27T10:22:51.859Z,810.04
2018-11-27T10:23:51.865Z,810.02
2018-11-27T10:24:53.090Z,810.03
2018-11-27T10:25:51.876Z,810.00
2018-11-27T10:26:51.885Z,809.96
2018-11-27T10:27:51.893Z,809.95
2018-11-27T10:28:51.902Z,809.94
2018-11-27T10:29:51.916Z,809.89
2018-11-27T10:30:51.919Z,809.88
2018-11-27T10:31:51.922Z,809.86
2018-11-27T10:32:51.939Z,809.80
2018-11-27T10:33:51.933Z,809.79
2018-11-27T10:34:51.940Z,809.75
2018-11-27T10:35:51.947Z,809.78
2018-11-27T10:36:51.952Z,809.83
2018-11-27T10:37:51.959Z,809.76
2018-11-27T10:38:51.967Z,809.71
2018-11-27T10:39:51.977Z,809.69
2018-11-27T10:40:51.981Z,809.70
2018-11-27T10:41:51.987Z,809.64
2018-11-27T10:42:52.042Z,809.64
2018-11-27T10:43:52.003Z,809.64
2018-11-27T10:44:52.005Z,809.64
2018-11-27T10:45:52.013Z,809.62
2018-11-27T10:46:52.029Z,809.69
2018-11-27T10:47:52.026Z,809.66
2018-11-27T10:48:52.033Z,809.70
2018-11-27T10:49:52.044Z,809.70
2018-11-27T10:50:52.047Z,809.65
2018-11-27T10:51:52.053Z,809.65
2018-11-27T10:52:52.060Z,809.57
2018-11-27T10:53:52.067Z,809.58
2018-11-27T10:54:52.078Z,809.58
2018-11-27T10:55:52.084Z,809.53
2018-11-27T10:56:52.088Z,809.53
2018-11-27T10:57:52.095Z,809.54
2018-11-27T10:58:52.103Z,809.51
2018-11-27T10:59:52.109Z,809.46
2018-11-27T11:00:52.116Z,809.47
2018-11-27T11:01:52.122Z,809.47
2018-11-27T11:02:52.130Z,809.45
2018-11-27T11:03:52.137Z,809.46
2018-11-27T11:04:52.144Z,809.52
2018-11-27T11:05:52.150Z,809.51
2018-11-27T11:06:52.157Z,809.51
2018-11-27T11:07:52.165Z,809.48
2018-11-27T11:08:52.171Z,809.43
2018-11-27T11:09:52.181Z,809.41
2018-11-27T11:10:52.187Z,809.45
2018-11-27T11:11:52.193Z,809.44
2018-11-27T11:12:52.199Z,809.47
2018-11-27T11:13:52.205Z,809.44
2018-11-27T11:14:52.215Z,809.48
2018-11-27T11:15:52.223Z,809.49
2018-11-27T11:16:52.230Z,809.52
2018-11-27T11:17:52.235Z,809.53
2018-11-27T11:18:52.241Z,809.54
2018-11-27T11:19:52.251Z,809.60
2018-11-27T11:20:52.301Z,809.61
2018-11-27T11:21:52.266Z,809.67
2018-11-27T11:22:52.272Z,809.67
2018-11-27T11:23:52.279Z,809.70
2018-11-27T11:24:52.285Z,809.69
2018-11-27T11:25:52.293Z,809.74
2018-11-27T11:26:52.301Z,809.68
2018-11-27T11:27:52.309Z,809.69
2018-11-27T11:28:52.316Z,809.71
2018-11-27T11:29:52.324Z,809.70
2018-11-27T11:30:52.329Z,809.70
2018-11-27T11:31:52.339Z,809.73
2018-11-27T11:32:52.349Z,809.76
2018-11-27T11:33:52.352Z,809.78
2018-11-27T11:34:52.359Z,809.76
2018-11-27T11:35:52.366Z,809.75
2018-11-27T11:36:52.370Z,809.73
2018-11-27T11:37:52.379Z,809.77
2018-11-27T11:38:52.385Z,809.75
2018-11-27T11:39:52.392Z,809.74
2018-11-27T11:40:52.398Z,809.73
2018-11-27T11:41:52.407Z,809.76
2018-11-27T11:42:52.419Z,809.74
2018-11-27T11:43:52.419Z,809.81
2018-11-27T11:44:52.426Z,809.83
2018-11-27T11:45:52.435Z,809.82
2018-11-27T11:46:52.442Z,809.86
2018-11-27T11:47:52.447Z,809.89
2018-11-27T11:48:52.455Z,809.93
2018-11-27T11:49:52.464Z,809.93
2018-11-27T11:50:52.470Z,809.91
2018-11-27T11:51:52.478Z,809.96
2018-11-27T11:52:52.486Z,809.96
2018-11-27T11:53:52.492Z,809.94
2018-11-27T11:54:52.496Z,809.99
2018-11-27T11:55:52.513Z,810.00
2018-11-27T11:56:52.512Z,810.02
2018-11-27T11:57:52.517Z,810.04
2018-11-27T11:58:52.526Z,810.02
2018-11-27T11:59:52.533Z,810.05
2018-11-27T12:00:52.537Z,810.05
2018-11-27T12:01:52.547Z,810.11
2018-11-27T12:02:52.552Z,810.10
2018-11-27T12:03:52.558Z,810.08
2018-11-27T12:04:52.567Z,810.07
2018-11-27T12:05:52.575Z,810.08
2018-11-27T12:06:52.577Z,810.06
2018-11-27T12:07:52.585Z,810.08
2018-11-27T12:08:52.741Z,810.10
2018-11-27T12:09:52.597Z,810.07
2018-11-27T12:10:52.607Z,810.12
2018-11-27T12:11:52.616Z,810.18
2018-11-27T12:12:52.620Z,810.14
2018-11-27T12:13:52.627Z,810.20
2018-11-27T12:14:52.630Z,810.21
2018-11-27T12:15:52.638Z,810.25
2018-11-27T12:16:52.643Z,810.21
2018-11-27T12:17:52.652Z,810.19
2018-11-27T12:18:52.656Z,810.24
2018-11-27T12:19:52.662Z,810.27
2018-11-27T12:20:52.672Z,810.30
2018-11-27T12:21:52.674Z,810.31
2018-11-27T12:22:52.680Z,810.34
2018-11-27T12:23:52.688Z,810.32
2018-11-27T12:24:52.694Z,810.33
2018-11-27T12:25:52.702Z,810.31
2018-11-27T12:26:52.707Z,810.36
2018-11-27T12:27:52.714Z,810.34
2018-11-27T12:28:52.721Z,810.34